Time;durP1;ratioP1;P1;durP2;ratioP2;P2;SDS_P1;SDS_P2;PMS_P1;PMS_P2;Temp;Humidity;BMP_temperature;BMP_pressure;BME280_temperature;BME280_humidity;BME280_pressure;Samples;Min_cycle;Max_cycle;Signal;HPM_P1;HPM_P2
2023/07/23 00:01:24;;;;;;;;;;;;;;;;;;5092523;28;20022;-72
2023/07/23 00:03:51;;;;;;;;;;;;;;;;;;5093161;28;20019;-72
2023/07/23 00:06:18;;;;;;;;;;;;;;;;;;5092440;28;20023;-72
2023/07/23 00:08:45;;;;;;;;;;;;;;;;;;5093000;28;19931;-72
2023/07/23 00:11:11;;;;;;;;;;;;;;;;;;5092876;28;19970;-72
2023/07/23 00:13:38;;;;;;;;;;;;;;;;;;5092207;28;20454;-72
2023/07/23 00:16:05;;;;;;;;;;;;;;;;;;5092768;28;20470;-72
2023/07/23 00:18:32;;;;;;;;;;;;;;;;;;5093120;28;20347;-73
2023/07/23 00:20:59;;;;;;;;;;;;;;;;;;5093145;28;20014;-72
2023/07/23 00:23:26;;;;;;;;;;;;;;;;;;5074468;28;19925;-72
2023/07/23 00:25:54;;;;;;;;;;;;;;;;;;5072353;28;20446;-72
2023/07/23 00:28:21;;;;;;;;;;;;;;;;;;5072618;28;20015;-72
2023/07/23 00:30:48;;;;;;;;;;;;;;;;;;5072495;28;20475;-72
2023/07/23 00:33:15;;;;;;;;;;;;;;;;;;5091052;28;20343;-72
2023/07/23 00:35:42;;;;;;;;;;;;;;;;;;5091869;28;20346;-72
2023/07/23 00:38:09;;;;;;;;;;;;;;;;;;5092714;28;20014;-72
2023/07/23 00:40:36;;;;;;;;;;;;;;;;;;5091288;28;20019;-73
2023/07/23 00:43:02;;;;;;;;;;;;;;;;;;5092719;28;20007;-72
2023/07/23 00:45:29;;;;;;;;;;;;;;;;;;5092687;28;20027;-72
2023/07/23 00:47:56;;;;;;;;;;;;;;;;;;5091697;28;20006;-72
2023/07/23 00:50:23;;;;;;;;;;;;;;;;;;5092890;28;19964;-72
2023/07/23 00:52:50;;;;;;;;;;;;;;;;;;5092297;28;20011;-72
2023/07/23 00:55:17;;;;;;;;;;;;;;;;;;5092056;28;20015;-73
2023/07/23 00:57:44;;;;;;;;;;;;;;;;;;5087903;28;20375;-72
2023/07/23 01:00:12;;;;;;;;;;;;;;;;;;5072370;28;19968;-72
2023/07/23 01:02:39;;;;;;;;;;;;;;;;;;5084075;28;19935;-72
2023/07/23 01:05:06;;;;;;;;;;;;;;;;;;5091994;28;19924;-72
2023/07/23 01:07:33;;;;;;;;;;;;;;;;;;5092340;28;19967;-72
2023/07/23 01:10:00;;;;;;;;;;;;;;;;;;5092344;28;19924;-72
2023/07/23 01:12:27;;;;;;;;;;;;;;;;;;5091771;28;19971;-72
2023/07/23 01:14:54;;;;;;;;;;;;;;;;;;5091312;28;20015;-72
2023/07/23 01:17:21;;;;;;;;;;;;;;;;;;5092313;28;19982;-72
2023/07/23 01:19:48;;;;;;;;;;;;;;;;;;5092463;28;19928;-72
2023/07/23 01:22:15;;;;;;;;;;;;;;;;;;5092565;28;20023;-71
2023/07/23 01:24:42;;;;;;;;;;;;;;;;;;5093410;28;20018;-72
2023/07/23 01:27:09;;;;;;;;;;;;;;;;;;5096377;28;20341;-72
2023/07/23 01:29:36;;;;;;;;;;;;;;;;;;5095974;28;20294;-72
2023/07/23 01:32:03;;;;;;;;;;;;;;;;;;5094500;28;20323;-72
2023/07/23 01:34:30;;;;;;;;;;;;;;;;;;5095706;28;19928;-72
2023/07/23 01:36:57;;;;;;;;;;;;;;;;;;5096069;28;20243;-72
2023/07/23 01:39:24;;;;;;;;;;;;;;;;;;5095959;28;20477;-72
2023/07/23 01:41:51;;;;;;;;;;;;;;;;;;5096201;28;20475;-72
2023/07/23 01:44:17;;;;;;;;;;;;;;;;;;5096255;28;19957;-72
2023/07/23 01:46:46;;;;;;;;;;;;;;;;;;5096203;28;20018;-74
2023/07/23 01:49:13;;;;;;;;;;;;;;;;;;5087055;28;19924;-72
2023/07/23 01:51:40;;;;;;;;;;;;;;;;;;5093875;28;19924;-72
2023/07/23 01:54:07;;;;;;;;;;;;;;;;;;5095623;28;19924;-72
2023/07/23 01:56:34;;;;;;;;;;;;;;;;;;5095255;28;19924;-71
2023/07/23 01:59:01;;;;;;;;;;;;;;;;;;5091592;28;20007;-72
2023/07/23 02:01:29;;;;;;;;;;;;;;;;;;5095583;28;19932;-72
2023/07/23 02:03:56;;;;;;;;;;;;;;;;;;5095639;28;19924;-72
2023/07/23 02:06:23;;;;;;;;;;;;;;;;;;5095318;28;19963;-72
2023/07/23 02:08:50;;;;;;;;;;;;;;;;;;5095560;28;19931;-72
2023/07/23 02:11:17;;;;;;;;;;;;;;;;;;5095182;28;20023;-72
2023/07/23 02:13:44;;;;;;;;;;;;;;;;;;5095269;28;20351;-72
2023/07/23 02:16:11;;;;;;;;;;;;;;;;;;5095060;28;20309;-72
2023/07/23 02:18:38;;;;;;;;;;;;;;;;;;5095255;28;20264;-72
2023/07/23 02:21:05;;;;;;;;;;;;;;;;;;5074656;28;20340;-72
2023/07/23 02:23:32;;;;;;;;;;;;;;;;;;5075458;28;19971;-72
2023/07/23 02:25:59;;;;;;;;;;;;;;;;;;5074729;28;20036;-72
2023/07/23 02:28:26;;;;;;;;;;;;;;;;;;5091772;28;19924;-72
2023/07/23 02:30:53;;;;;;;;;;;;;;;;;;5094657;28;20022;-72
2023/07/23 02:33:20;;;;;;;;;;;;;;;;;;5095125;28;20030;-72
2023/07/23 02:35:47;;;;;;;;;;;;;;;;;;5094568;28;19924;-72
2023/07/23 02:38:14;;;;;;;;;;;;;;;;;;5094815;28;19963;-72
2023/07/23 02:40:41;;;;;;;;;;;;;;;;;;5094008;28;19924;-72
2023/07/23 02:43:11;;;;;;;;;;;;;;;;;;5094484;28;19931;-72
2023/07/23 02:45:38;;;;;;;;;;;;;;;;;;5094716;28;20276;-72
2023/07/23 02:48:05;;;;;;;;;;;;;;;;;;5093475;28;20026;-72
2023/07/23 02:50:32;;;;;;;;;;;;;;;;;;5094666;28;20006;-72
2023/07/23 02:52:59;;;;;;;;;;;;;;;;;;5094488;28;19927;-72
2023/07/23 02:55:26;;;;;;;;;;;;;;;;;;5094731;28;19924;-72
2023/07/23 02:57:53;;;;;;;;;;;;;;;;;;5091804;28;19924;-72
2023/07/23 03:00:20;;;;;;;;;;;;;;;;;;5094273;28;19924;-72
2023/07/23 03:02:47;;;;;;;;;;;;;;;;;;5094194;28;20018;-69
2023/07/23 03:05:14;;;;;;;;;;;;;;;;;;5094073;28;20018;-69
2023/07/23 03:07:41;;;;;;;;;;;;;;;;;;5094302;28;19924;-69
2023/07/23 03:10:08;;;;;;;;;;;;;;;;;;5094153;28;19931;-69
2023/07/23 03:12:35;;;;;;;;;;;;;;;;;;5094225;28;19979;-69
2023/07/23 03:15:02;;;;;;;;;;;;;;;;;;5088234;28;20007;-69
2023/07/23 03:17:29;;;;;;;;;;;;;;;;;;5093748;28;20310;-69
2023/07/23 03:19:56;;;;;;;;;;;;;;;;;;5094157;28;19962;-69
2023/07/23 03:22:23;;;;;;;;;;;;;;;;;;5094007;28;20003;-69
2023/07/23 03:24:50;;;;;;;;;;;;;;;;;;5093856;28;19959;-69
2023/07/23 03:27:17;;;;;;;;;;;;;;;;;;5093700;28;19977;-69
2023/07/23 03:29:44;;;;;;;;;;;;;;;;;;5093352;28;20457;-69
2023/07/23 03:32:11;;;;;;;;;;;;;;;;;;5093149;28;20356;-69
2023/07/23 03:34:38;;;;;;;;;;;;;;;;;;5094116;28;20012;-69
2023/07/23 03:37:05;;;;;;;;;;;;;;;;;;5093936;28;19924;-69
2023/07/23 03:39:32;;;;;;;;;;;;;;;;;;5093673;28;19931;-69
2023/07/23 03:41:59;;;;;;;;;;;;;;;;;;5093571;28;19924;-69
2023/07/23 03:44:26;;;;;;;;;;;;;;;;;;5093312;28;20450;-69
2023/07/23 03:46:53;;;;;;;;;;;;;;;;;;5093682;28;20395;-69
2023/07/23 03:49:20;;;;;;;;;;;;;;;;;;5075694;28;20028;-69
2023/07/23 03:51:47;;;;;;;;;;;;;;;;;;5079604;28;20036;-69
2023/07/23 03:54:14;;;;;;;;;;;;;;;;;;5093286;28;20002;-69
2023/07/23 03:56:41;;;;;;;;;;;;;;;;;;5093034;28;19924;-69
2023/07/23 03:59:07;;;;;;;;;;;;;;;;;;5093310;28;19977;-70
2023/07/23 04:01:34;;;;;;;;;;;;;;;;;;5092999;28;20406;-69
2023/07/23 04:04:01;;;;;;;;;;;;;;;;;;5093031;28;20346;-69
2023/07/23 04:06:28;;;;;;;;;;;;;;;;;;5092102;28;20007;-69
2023/07/23 04:08:55;;;;;;;;;;;;;;;;;;5091729;28;20010;-69
2023/07/23 04:11:22;;;;;;;;;;;;;;;;;;5092051;28;19982;-69
2023/07/23 04:13:49;;;;;;;;;;;;;;;;;;5092601;28;19924;-69
2023/07/23 04:16:16;;;;;;;;;;;;;;;;;;5093418;28;19954;-69
2023/07/23 04:18:43;;;;;;;;;;;;;;;;;;5091895;28;20015;-69
2023/07/23 04:21:10;;;;;;;;;;;;;;;;;;5092438;28;19943;-69
2023/07/23 04:23:37;;;;;;;;;;;;;;;;;;5092948;28;19985;-69
2023/07/23 04:26:04;;;;;;;;;;;;;;;;;;5092634;28;19931;-69
2023/07/23 04:28:31;;;;;;;;;;;;;;;;;;5092770;28;19931;-69
2023/07/23 04:30:58;;;;;;;;;;;;;;;;;;5092760;28;19931;-69
2023/07/23 04:33:25;;;;;;;;;;;;;;;;;;5092810;28;20014;-69
2023/07/23 04:35:52;;;;;;;;;;;;;;;;;;5093056;28;20022;-69
2023/07/23 04:38:19;;;;;;;;;;;;;;;;;;5091676;28;19928;-70
2023/07/23 04:40:46;;;;;;;;;;;;;;;;;;5092801;28;19924;-68
2023/07/23 04:43:13;;;;;;;;;;;;;;;;;;5092987;28;19978;-69
2023/07/23 04:45:40;;;;;;;;;;;;;;;;;;5092636;28;20035;-69
2023/07/23 04:48:07;;;;;;;;;;;;;;;;;;5084511;28;20103;-69
2023/07/23 04:50:34;;;;;;;;;;;;;;;;;;5072368;28;20003;-69
2023/07/23 04:53:01;;;;;;;;;;;;;;;;;;5072508;28;20011;-69
2023/07/23 04:55:28;;;;;;;;;;;;;;;;;;5073951;28;19929;-69
2023/07/23 04:57:54;;;;;;;;;;;;;;;;;;5092539;28;19924;-69
2023/07/23 05:00:22;;;;;;;;;;;;;;;;;;5094555;28;19979;-68
2023/07/23 05:02:49;;;;;;;;;;;;;;;;;;5096662;28;20293;-69
2023/07/23 05:05:16;;;;;;;;;;;;;;;;;;5095247;28;19924;-69
2023/07/23 05:07:43;;;;;;;;;;;;;;;;;;5096712;28;19924;-69
2023/07/23 05:10:10;;;;;;;;;;;;;;;;;;5096965;28;19970;-69
2023/07/23 05:12:37;;;;;;;;;;;;;;;;;;5095771;28;19928;-69
2023/07/23 05:15:04;;;;;;;;;;;;;;;;;;5095380;28;20388;-68
2023/07/23 05:17:31;;;;;;;;;;;;;;;;;;5095499;28;20098;-69
2023/07/23 05:19:58;;;;;;;;;;;;;;;;;;5096298;28;19946;-69
2023/07/23 05:22:24;;;;;;;;;;;;;;;;;;5095507;28;20034;-69
2023/07/23 05:24:51;;;;;;;;;;;;;;;;;;5096229;28;19999;-69
2023/07/23 05:27:18;;;;;;;;;;;;;;;;;;5096195;28;19963;-69
2023/07/23 05:29:45;;;;;;;;;;;;;;;;;;5095318;28;20024;-69
2023/07/23 05:32:12;;;;;;;;;;;;;;;;;;5096087;28;20462;-69
2023/07/23 05:34:39;;;;;;;;;;;;;;;;;;5096158;28;20377;-69
2023/07/23 05:37:06;;;;;;;;;;;;;;;;;;5095838;28;20374;-69
2023/07/23 05:39:33;;;;;;;;;;;;;;;;;;5096350;28;20358;-69
2023/07/23 05:42:00;;;;;;;;;;;;;;;;;;5095805;28;19952;-68
2023/07/23 05:44:28;;;;;;;;;;;;;;;;;;5095576;28;20018;-68
2023/07/23 05:46:55;;;;;;;;;;;;;;;;;;5089358;28;19928;-69
2023/07/23 05:49:22;;;;;;;;;;;;;;;;;;5093284;28;20371;-69
2023/07/23 05:51:49;;;;;;;;;;;;;;;;;;5094889;28;20361;-69
2023/07/23 05:54:16;;;;;;;;;;;;;;;;;;5095516;28;20357;-69
2023/07/23 05:56:42;;;;;;;;;;;;;;;;;;5093934;28;19963;-69
2023/07/23 05:59:09;;;;;;;;;;;;;;;;;;5093563;28;20007;-69
2023/07/23 06:01:36;;;;;;;;;;;;;;;;;;5094997;28;20018;-69
2023/07/23 06:04:03;;;;;;;;;;;;;;;;;;5090954;28;20015;-69
2023/07/23 06:06:30;;;;;;;;;;;;;;;;;;5094827;28;19946;-69
2023/07/23 06:08:57;;;;;;;;;;;;;;;;;;5095157;28;19959;-69
2023/07/23 06:11:24;;;;;;;;;;;;;;;;;;5093913;28;19935;-68
2023/07/23 06:13:51;;;;;;;;;;;;;;;;;;5095362;28;19931;-68
2023/07/23 06:16:18;;;;;;;;;;;;;;;;;;5095123;28;20027;-69
2023/07/23 06:18:45;;;;;;;;;;;;;;;;;;5095247;28;19967;-69
2023/07/23 06:21:12;;;;;;;;;;;;;;;;;;5086349;28;20015;-69
2023/07/23 06:23:39;;;;;;;;;;;;;;;;;;5075169;28;19967;-69
2023/07/23 06:26:06;;;;;;;;;;;;;;;;;;5074893;28;19967;-69
2023/07/23 06:28:33;;;;;;;;;;;;;;;;;;5074822;28;19925;-69
2023/07/23 06:31:00;;;;;;;;;;;;;;;;;;5074491;28;20042;-69
2023/07/23 06:33:27;;;;;;;;;;;;;;;;;;5074770;28;20003;-67
2023/07/23 06:35:54;;;;;;;;;;;;;;;;;;5074526;28;19978;-68
2023/07/23 06:38:21;;;;;;;;;;;;;;;;;;5075301;28;20019;-67
2023/07/23 06:40:48;;;;;;;;;;;;;;;;;;5074773;28;19924;-68
2023/07/23 06:43:16;;;;;;;;;;;;;;;;;;5074249;28;20032;-68
2023/07/23 06:45:43;;;;;;;;;;;;;;;;;;5074747;28;19924;-67
2023/07/23 06:48:10;;;;;;;;;;;;;;;;;;5091325;28;20011;-68
2023/07/23 06:50:37;;;;;;;;;;;;;;;;;;5094174;28;19975;-67
2023/07/23 06:53:04;;;;;;;;;;;;;;;;;;5093671;28;19982;-68
2023/07/23 06:55:31;;;;;;;;;;;;;;;;;;5083398;28;19924;-67
2023/07/23 06:57:58;;;;;;;;;;;;;;;;;;5074255;28;20011;-70
2023/07/23 07:00:25;;;;;;;;;;;;;;;;;;5073413;28;20011;-67
2023/07/23 07:02:52;;;;;;;;;;;;;;;;;;5073839;28;20019;-67
2023/07/23 07:05:19;;;;;;;;;;;;;;;;;;5073572;28;20024;-67
2023/07/23 07:07:46;;;;;;;;;;;;;;;;;;5073337;28;19935;-68
2023/07/23 07:10:13;;;;;;;;;;;;;;;;;;5073557;28;20367;-67
2023/07/23 07:12:40;;;;;;;;;;;;;;;;;;5080678;28;19977;-68
2023/07/23 07:15:07;;;;;;;;;;;;;;;;;;5093762;28;20430;-68
2023/07/23 07:17:34;;;;;;;;;;;;;;;;;;5094354;28;20470;-68
2023/07/23 07:20:01;;;;;;;;;;;;;;;;;;5093854;28;20450;-68
2023/07/23 07:22:28;;;;;;;;;;;;;;;;;;5093558;28;20351;-68
2023/07/23 07:24:55;;;;;;;;;;;;;;;;;;5093619;28;20003;-68
2023/07/23 07:27:22;;;;;;;;;;;;;;;;;;5091334;28;19975;-68
2023/07/23 07:29:49;;;;;;;;;;;;;;;;;;5092777;28;20014;-68
2023/07/23 07:32:16;;;;;;;;;;;;;;;;;;5093642;28;19924;-68
2023/07/23 07:34:43;;;;;;;;;;;;;;;;;;5093763;28;20039;-68
2023/07/23 07:37:10;;;;;;;;;;;;;;;;;;5093664;28;20460;-68
2023/07/23 07:39:37;;;;;;;;;;;;;;;;;;5093474;28;19924;-68
2023/07/23 07:42:04;;;;;;;;;;;;;;;;;;5093458;28;20035;-68
2023/07/23 07:44:31;;;;;;;;;;;;;;;;;;5090704;28;20021;-68
2023/07/23 07:46:58;;;;;;;;;;;;;;;;;;5084293;28;19931;-68
2023/07/23 07:49:25;;;;;;;;;;;;;;;;;;5093170;28;20102;-68
2023/07/23 07:51:52;;;;;;;;;;;;;;;;;;5093476;28;19943;-68
2023/07/23 07:54:19;;;;;;;;;;;;;;;;;;5092638;28;20022;-68
2023/07/23 07:56:46;;;;;;;;;;;;;;;;;;5092435;28;20015;-68
2023/07/23 07:59:13;;;;;;;;;;;;;;;;;;5092703;28;20358;-68
2023/07/23 08:01:40;;;;;;;;;;;;;;;;;;5092206;28;20458;-68
2023/07/23 08:04:07;;;;;;;;;;;;;;;;;;5084716;28;19978;-68
2023/07/23 08:06:34;;;;;;;;;;;;;;;;;;5075178;28;19928;-68
2023/07/23 08:09:01;;;;;;;;;;;;;;;;;;5092694;28;20007;-68
2023/07/23 08:11:28;;;;;;;;;;;;;;;;;;5084957;28;20379;-68
2023/07/23 08:13:55;;;;;;;;;;;;;;;;;;5072755;28;20280;-68
2023/07/23 08:16:22;;;;;;;;;;;;;;;;;;5072765;28;20023;-68
2023/07/23 08:18:49;;;;;;;;;;;;;;;;;;5072836;28;19958;-68
2023/07/23 08:21:17;;;;;;;;;;;;;;;;;;5081178;28;19930;-68
2023/07/23 08:23:44;;;;;;;;;;;;;;;;;;5092978;28;19936;-68
2023/07/23 08:26:11;;;;;;;;;;;;;;;;;;5093165;28;19974;-68
2023/07/23 08:28:38;;;;;;;;;;;;;;;;;;5092777;28;19924;-68
2023/07/23 08:31:05;;;;;;;;;;;;;;;;;;5092731;28;20458;-69
2023/07/23 08:33:32;;;;;;;;;;;;;;;;;;5092595;28;19982;-69
2023/07/23 08:35:59;;;;;;;;;;;;;;;;;;5092146;28;19924;-69
2023/07/23 08:38:26;;;;;;;;;;;;;;;;;;5091885;28;19933;-69
2023/07/23 08:40:53;;;;;;;;;;;;;;;;;;5092455;28;20016;-69
2023/07/23 08:43:20;;;;;;;;;;;;;;;;;;5092540;28;20003;-69
2023/07/23 08:45:47;;;;;;;;;;;;;;;;;;5091479;28;20339;-68
2023/07/23 08:48:15;;;;;;;;;;;;;;;;;;5092595;28;20003;-68
2023/07/23 08:50:42;;;;;;;;;;;;;;;;;;5092403;28;19925;-69
2023/07/23 08:53:09;;;;;;;;;;;;;;;;;;5081583;28;20015;-69
2023/07/23 08:55:36;;;;;;;;;;;;;;;;;;5072823;28;19924;-68
2023/07/23 08:58:03;;;;;;;;;;;;;;;;;;5072142;28;20031;-69
2023/07/23 09:00:30;;;;;;;;;;;;;;;;;;5086826;28;20019;-68
2023/07/23 09:03:02;;;;;;;;;;;;;;;;;;5092270;28;20399;-69
2023/07/23 09:05:29;;;;;;;;;;;;;;;;;;5092582;28;19928;-68
2023/07/23 09:07:56;;;;;;;;;;;;;;;;;;5092665;28;19971;-68
2023/07/23 09:10:23;;;;;;;;;;;;;;;;;;5090661;28;20006;-68
2023/07/23 09:12:50;;;;;;;;;;;;;;;;;;5089039;28;19998;-68
2023/07/23 09:15:17;;;;;;;;;;;;;;;;;;5071690;28;20007;-68
2023/07/23 09:17:44;;;;;;;;;;;;;;;;;;5078674;28;19928;-68
2023/07/23 09:20:11;;;;;;;;;;;;;;;;;;5092392;28;19967;-68
2023/07/23 09:22:38;;;;;;;;;;;;;;;;;;5092373;28;19969;-68
2023/07/23 09:25:05;;;;;;;;;;;;;;;;;;5092131;28;19930;-68
2023/07/23 09:27:32;;;;;;;;;;;;;;;;;;5090016;28;19928;-68
2023/07/23 09:29:59;;;;;;;;;;;;;;;;;;5083547;28;19928;-68
2023/07/23 09:32:26;;;;;;;;;;;;;;;;;;5091702;28;19928;-68
2023/07/23 09:34:53;;;;;;;;;;;;;;;;;;5081423;28;20011;-69
2023/07/23 09:37:20;;;;;;;;;;;;;;;;;;5072196;28;20023;-68
2023/07/23 09:39:47;;;;;;;;;;;;;;;;;;5071794;28;20399;-68
2023/07/23 09:42:14;;;;;;;;;;;;;;;;;;5071724;28;19960;-69
2023/07/23 09:44:41;;;;;;;;;;;;;;;;;;5075714;28;20007;-69
2023/07/23 09:47:08;;;;;;;;;;;;;;;;;;5083848;28;19928;-68
2023/07/23 09:49:35;;;;;;;;;;;;;;;;;;5075554;28;19975;-68
2023/07/23 09:52:03;;;;;;;;;;;;;;;;;;5075255;28;20450;-69
2023/07/23 09:54:30;;;;;;;;;;;;;;;;;;5075545;28;20323;-68
2023/07/23 09:56:57;;;;;;;;;;;;;;;;;;5075436;28;20010;-69
2023/07/23 09:59:24;;;;;;;;;;;;;;;;;;5075318;28;20015;-68
2023/07/23 10:01:50;;;;;;;;;;;;;;;;;;5075545;28;20011;-69
2023/07/23 10:04:17;;;;;;;;;;;;;;;;;;5074760;28;19964;-68
2023/07/23 10:06:44;;;;;;;;;;;;;;;;;;5084167;28;19928;-68
2023/07/23 10:09:13;;;;;;;;;;;;;;;;;;5095128;28;20448;-69
2023/07/23 10:11:40;;;;;;;;;;;;;;;;;;5095074;28;20027;-68
2023/07/23 10:14:07;;;;;;;;;;;;;;;;;;5094951;28;19924;-68
2023/07/23 10:16:34;;;;;;;;;;;;;;;;;;5095387;28;20106;-68
2023/07/23 10:19:01;;;;;;;;;;;;;;;;;;5087967;28;19959;-69
2023/07/23 10:21:28;;;;;;;;;;;;;;;;;;5074671;28;19925;-69
2023/07/23 10:23:55;;;;;;;;;;;;;;;;;;5074651;28;20007;-69
2023/07/23 10:26:22;;;;;;;;;;;;;;;;;;5074593;28;20305;-69
2023/07/23 10:28:49;;;;;;;;;;;;;;;;;;5075064;28;20015;-69
2023/07/23 10:31:17;;;;;;;;;;;;;;;;;;5074610;28;19965;-69
2023/07/23 10:33:45;;;;;;;;;;;;;;;;;;5074907;28;19928;-69
2023/07/23 10:36:12;;;;;;;;;;;;;;;;;;5083333;28;19931;-69
2023/07/23 10:38:39;;;;;;;;;;;;;;;;;;5094890;28;20006;-69
2023/07/23 10:41:07;;;;;;;;;;;;;;;;;;5094503;28;19974;-69
2023/07/23 10:43:34;;;;;;;;;;;;;;;;;;5094485;28;19978;-69
2023/07/23 10:46:01;;;;;;;;;;;;;;;;;;5094977;28;20370;-69
2023/07/23 10:48:28;;;;;;;;;;;;;;;;;;5094617;28;19924;-69
2023/07/23 10:50:56;;;;;;;;;;;;;;;;;;5094371;28;20011;-69
2023/07/23 10:53:23;;;;;;;;;;;;;;;;;;5084147;28;19931;-69
2023/07/23 10:55:50;;;;;;;;;;;;;;;;;;5074051;28;19925;-69
2023/07/23 10:58:17;;;;;;;;;;;;;;;;;;5073321;28;19954;-69
2023/07/23 11:00:44;;;;;;;;;;;;;;;;;;5077650;28;20462;-69
2023/07/23 11:03:11;;;;;;;;;;;;;;;;;;5093602;28;20458;-69
2023/07/23 11:05:38;;;;;;;;;;;;;;;;;;5093791;28;19935;-69
2023/07/23 11:08:06;;;;;;;;;;;;;;;;;;5093846;28;19982;-68
2023/07/23 11:10:33;;;;;;;;;;;;;;;;;;5093480;28;19928;-69
2023/07/23 11:13:00;;;;;;;;;;;;;;;;;;5094082;28;19975;-69
2023/07/23 11:15:27;;;;;;;;;;;;;;;;;;5093582;28;19982;-69
2023/07/23 11:17:54;;;;;;;;;;;;;;;;;;5094234;28;20387;-69
2023/07/23 11:20:21;;;;;;;;;;;;;;;;;;5093749;28;19967;-69
2023/07/23 11:22:47;;;;;;;;;;;;;;;;;;5089530;28;20011;-69
2023/07/23 11:25:14;;;;;;;;;;;;;;;;;;5073383;28;20019;-69
2023/07/23 11:27:41;;;;;;;;;;;;;;;;;;5073946;28;19956;-69
2023/07/23 11:30:08;;;;;;;;;;;;;;;;;;5073491;28;20003;-69
2023/07/23 11:32:36;;;;;;;;;;;;;;;;;;5073389;28;20018;-69
2023/07/23 11:35:03;;;;;;;;;;;;;;;;;;5073183;28;20031;-69
2023/07/23 11:37:30;;;;;;;;;;;;;;;;;;5072977;28;20361;-69
2023/07/23 11:39:57;;;;;;;;;;;;;;;;;;5073504;28;20028;-69
2023/07/23 11:42:24;;;;;;;;;;;;;;;;;;5073053;28;20364;-69
2023/07/23 11:44:51;;;;;;;;;;;;;;;;;;5073396;28;19924;-70
2023/07/23 11:47:18;;;;;;;;;;;;;;;;;;5073195;28;19924;-67
2023/07/23 11:49:45;;;;;;;;;;;;;;;;;;5073105;28;19925;-68
2023/07/23 11:52:12;;;;;;;;;;;;;;;;;;5074765;28;19924;-67
2023/07/23 11:54:39;;;;;;;;;;;;;;;;;;5081092;28;19967;-68
2023/07/23 11:57:06;;;;;;;;;;;;;;;;;;5092790;28;20019;-67
2023/07/23 11:59:33;;;;;;;;;;;;;;;;;;5093370;28;19969;-68
2023/07/23 12:02:00;;;;;;;;;;;;;;;;;;5084847;28;20012;-68
2023/07/23 12:04:27;;;;;;;;;;;;;;;;;;5072984;28;20007;-68
2023/07/23 12:06:54;;;;;;;;;;;;;;;;;;5086207;28;19924;-68
2023/07/23 12:09:21;;;;;;;;;;;;;;;;;;5093258;28;20007;-67
2023/07/23 12:11:48;;;;;;;;;;;;;;;;;;5092887;28;20019;-68
2023/07/23 12:14:15;;;;;;;;;;;;;;;;;;5093033;28;20026;-68
2023/07/23 12:16:42;;;;;;;;;;;;;;;;;;5093018;28;19924;-68
2023/07/23 12:19:09;;;;;;;;;;;;;;;;;;5076278;28;19925;-68
2023/07/23 12:21:36;;;;;;;;;;;;;;;;;;5072823;28;20008;-68
2023/07/23 12:24:03;;;;;;;;;;;;;;;;;;5072748;28;19925;-68
2023/07/23 12:26:30;;;;;;;;;;;;;;;;;;5072344;28;19970;-67
2023/07/23 12:28:57;;;;;;;;;;;;;;;;;;5072638;28;20287;-67
2023/07/23 12:31:24;;;;;;;;;;;;;;;;;;5072584;28;19970;-67
2023/07/23 12:33:51;;;;;;;;;;;;;;;;;;5072640;28;20032;-69
2023/07/23 12:36:19;;;;;;;;;;;;;;;;;;5073104;28;19952;-68
2023/07/23 12:38:45;;;;;;;;;;;;;;;;;;5072788;28;20043;-67
2023/07/23 12:41:12;;;;;;;;;;;;;;;;;;5072790;28;20018;-68
2023/07/23 12:43:40;;;;;;;;;;;;;;;;;;5072600;28;20023;-68
2023/07/23 12:46:07;;;;;;;;;;;;;;;;;;5084427;28;19977;-67
2023/07/23 12:48:33;;;;;;;;;;;;;;;;;;5092595;28;19971;-67
2023/07/23 12:51:00;;;;;;;;;;;;;;;;;;5092764;28;20018;-67
2023/07/23 12:53:27;;;;;;;;;;;;;;;;;;5073631;28;20399;-68
2023/07/23 12:55:54;;;;;;;;;;;;;;;;;;5090677;28;19956;-68
2023/07/23 12:58:21;;;;;;;;;;;;;;;;;;5092391;28;20023;-68
2023/07/23 13:00:48;;;;;;;;;;;;;;;;;;5092250;28;19999;-68
2023/07/23 13:03:15;;;;;;;;;;;;;;;;;;5092939;28;20011;-68
2023/07/23 13:05:42;;;;;;;;;;;;;;;;;;5092278;28;19928;-68
2023/07/23 13:08:09;;;;;;;;;;;;;;;;;;5092193;28;19948;-68
2023/07/23 13:10:36;;;;;;;;;;;;;;;;;;5092017;28;20012;-68
2023/07/23 13:13:03;;;;;;;;;;;;;;;;;;5092350;28;20418;-67
2023/07/23 13:15:30;;;;;;;;;;;;;;;;;;5091756;28;19928;-68
2023/07/23 13:17:57;;;;;;;;;;;;;;;;;;5091524;28;20011;-68
2023/07/23 13:20:24;;;;;;;;;;;;;;;;;;5092817;28;19924;-68
2023/07/23 13:22:51;;;;;;;;;;;;;;;;;;5095143;28;19970;-67
2023/07/23 13:25:18;;;;;;;;;;;;;;;;;;5095177;28;20022;-68
2023/07/23 13:27:45;;;;;;;;;;;;;;;;;;5095073;28;19963;-68
2023/07/23 13:30:12;;;;;;;;;;;;;;;;;;5096298;28;19924;-68
2023/07/23 13:32:39;;;;;;;;;;;;;;;;;;5095222;28;20413;-69
2023/07/23 13:35:06;;;;;;;;;;;;;;;;;;5095739;28;19955;-69
2023/07/23 13:37:33;;;;;;;;;;;;;;;;;;5095941;28;19960;-69
2023/07/23 13:40:00;;;;;;;;;;;;;;;;;;5095462;28;19970;-69
2023/07/23 13:42:29;;;;;;;;;;;;;;;;;;5095195;28;20019;-69
2023/07/23 13:44:56;;;;;;;;;;;;;;;;;;5095557;28;20409;-69
2023/07/23 13:47:23;;;;;;;;;;;;;;;;;;5095787;28;19925;-68
2023/07/23 13:49:50;;;;;;;;;;;;;;;;;;5096009;28;19959;-68
2023/07/23 13:52:19;;;;;;;;;;;;;;;;;;5094816;28;20039;-68
2023/07/23 13:54:46;;;;;;;;;;;;;;;;;;5095213;28;19924;-69
2023/07/23 13:57:13;;;;;;;;;;;;;;;;;;5093730;28;19930;-68
2023/07/23 13:59:40;;;;;;;;;;;;;;;;;;5086086;28;20011;-67
2023/07/23 14:02:07;;;;;;;;;;;;;;;;;;5095490;28;20359;-68
2023/07/23 14:04:34;;;;;;;;;;;;;;;;;;5086915;28;19964;-68
2023/07/23 14:07:01;;;;;;;;;;;;;;;;;;5078686;28;20007;-68
2023/07/23 14:09:28;;;;;;;;;;;;;;;;;;5094379;28;20015;-68
2023/07/23 14:11:55;;;;;;;;;;;;;;;;;;5095470;28;20019;-68
2023/07/23 14:14:22;;;;;;;;;;;;;;;;;;5095118;28;19959;-68
2023/07/23 14:16:49;;;;;;;;;;;;;;;;;;5089428;28;20391;-68
2023/07/23 14:19:16;;;;;;;;;;;;;;;;;;5074807;28;20377;-68
2023/07/23 14:21:43;;;;;;;;;;;;;;;;;;5075066;28;19924;-68
2023/07/23 14:24:10;;;;;;;;;;;;;;;;;;5074745;28;20015;-68
2023/07/23 14:26:46;;;;;;;;;;;;;;;;;;5074790;28;20014;-69
2023/07/23 14:29:13;;;;;;;;;;;;;;;;;;5074522;28;19968;-68
2023/07/23 14:31:40;;;;;;;;;;;;;;;;;;5073434;28;19925;-68
2023/07/23 14:34:07;;;;;;;;;;;;;;;;;;5074679;28;19924;-68
2023/07/23 14:36:34;;;;;;;;;;;;;;;;;;5074178;28;19924;-68
2023/07/23 14:39:01;;;;;;;;;;;;;;;;;;5074136;28;20446;-68
2023/07/23 14:41:28;;;;;;;;;;;;;;;;;;5074721;28;19932;-68
2023/07/23 14:43:56;;;;;;;;;;;;;;;;;;5074826;28;20014;-68
2023/07/23 14:46:23;;;;;;;;;;;;;;;;;;5074414;28;19924;-68
2023/07/23 14:48:50;;;;;;;;;;;;;;;;;;5088739;28;19924;-68
2023/07/23 14:51:17;;;;;;;;;;;;;;;;;;5093858;28;19977;-68
2023/07/23 14:53:44;;;;;;;;;;;;;;;;;;5094599;28;20406;-69
2023/07/23 14:56:11;;;;;;;;;;;;;;;;;;5094296;28;19928;-68
2023/07/23 14:58:38;;;;;;;;;;;;;;;;;;5094054;28;19970;-68
2023/07/23 15:01:05;;;;;;;;;;;;;;;;;;5094095;28;20023;-68
2023/07/23 15:03:32;;;;;;;;;;;;;;;;;;5092376;28;19970;-68
2023/07/23 15:05:59;;;;;;;;;;;;;;;;;;5094222;28;20462;-68
2023/07/23 15:08:26;;;;;;;;;;;;;;;;;;5083826;28;20311;-68
2023/07/23 15:10:53;;;;;;;;;;;;;;;;;;5073996;28;20003;-69
2023/07/23 15:13:20;;;;;;;;;;;;;;;;;;5074155;28;20007;-69
2023/07/23 15:15:47;;;;;;;;;;;;;;;;;;5074032;28;20015;-69
2023/07/23 15:18:14;;;;;;;;;;;;;;;;;;5074157;28;20014;-69
2023/07/23 15:20:41;;;;;;;;;;;;;;;;;;5073984;28;19971;-69
2023/07/23 15:23:08;;;;;;;;;;;;;;;;;;5073923;28;20336;-69
2023/07/23 15:25:35;;;;;;;;;;;;;;;;;;5074223;28;19932;-69
2023/07/23 15:28:02;;;;;;;;;;;;;;;;;;5073208;28;20015;-69
2023/07/23 15:30:29;;;;;;;;;;;;;;;;;;5073018;28;19924;-69
2023/07/23 15:32:56;;;;;;;;;;;;;;;;;;5073014;28;20015;-69
2023/07/23 15:35:23;;;;;;;;;;;;;;;;;;5073385;28;20367;-69
2023/07/23 15:37:50;;;;;;;;;;;;;;;;;;5073740;28;20020;-68
2023/07/23 15:40:17;;;;;;;;;;;;;;;;;;5073171;28;20019;-69
2023/07/23 15:42:44;;;;;;;;;;;;;;;;;;5084668;28;20015;-69
2023/07/23 15:45:11;;;;;;;;;;;;;;;;;;5092990;28;20004;-68
2023/07/23 15:47:37;;;;;;;;;;;;;;;;;;5093391;28;19971;-69
2023/07/23 15:50:05;;;;;;;;;;;;;;;;;;5093811;28;20022;-69
2023/07/23 15:52:32;;;;;;;;;;;;;;;;;;5093565;28;20378;-68
2023/07/23 15:54:59;;;;;;;;;;;;;;;;;;5093062;28;20350;-68
2023/07/23 15:57:26;;;;;;;;;;;;;;;;;;5092987;28;19924;-69
2023/07/23 15:59:53;;;;;;;;;;;;;;;;;;5092041;28;20001;-69
2023/07/23 16:02:20;;;;;;;;;;;;;;;;;;5092675;28;19971;-69
2023/07/23 16:04:47;;;;;;;;;;;;;;;;;;5093130;28;19928;-70
2023/07/23 16:07:14;;;;;;;;;;;;;;;;;;5092863;28;20019;-69
2023/07/23 16:09:41;;;;;;;;;;;;;;;;;;5093066;28;19924;-70
2023/07/23 16:12:08;;;;;;;;;;;;;;;;;;5092983;28;19931;-69
2023/07/23 16:14:35;;;;;;;;;;;;;;;;;;5091984;28;19924;-69
2023/07/23 16:17:02;;;;;;;;;;;;;;;;;;5092186;28;19928;-70
2023/07/23 16:19:29;;;;;;;;;;;;;;;;;;5093048;28;19974;-69
2023/07/23 16:21:56;;;;;;;;;;;;;;;;;;5092705;28;20007;-69
2023/07/23 16:24:23;;;;;;;;;;;;;;;;;;5092879;28;20011;-69
2023/07/23 16:26:50;;;;;;;;;;;;;;;;;;5093015;28;19931;-69
2023/07/23 16:29:17;;;;;;;;;;;;;;;;;;5092745;28;19955;-69
2023/07/23 16:31:44;;;;;;;;;;;;;;;;;;5092712;28;20454;-69
2023/07/23 16:34:11;;;;;;;;;;;;;;;;;;5091776;28;19924;-69
2023/07/23 16:36:38;;;;;;;;;;;;;;;;;;5092692;28;19931;-69
2023/07/23 16:39:05;;;;;;;;;;;;;;;;;;5091719;28;19924;-68
2023/07/23 16:41:32;;;;;;;;;;;;;;;;;;5092710;28;20024;-69
2023/07/23 16:43:59;;;;;;;;;;;;;;;;;;5092625;28;20044;-69